createdAt,value
2023-09-02T00:00:45.342Z,51.33
2023-09-02T00:03:06.095Z,51.52
2023-09-02T00:05:26.858Z,51.88
2023-09-02T00:07:47.351Z,51.45
2023-09-02T00:10:09.800Z,51.03
2023-09-02T00:12:30.227Z,50.95
2023-09-02T00:14:50.766Z,51.97
2023-09-02T00:17:11.870Z,51.96
2023-09-02T00:19:32.627Z,52.13
2023-09-02T00:21:53.838Z,51.88
2023-09-02T00:24:14.629Z,51.63
2023-09-02T00:26:35.205Z,51.90
2023-09-02T00:28:55.671Z,52.59
2023-09-02T00:31:16.106Z,52.40
2023-09-02T00:33:37.399Z,51.83
2023-09-02T00:35:58.194Z,51.60
2023-09-02T00:38:18.642Z,51.52
2023-09-02T00:40:46.998Z,51.70
2023-09-02T00:43:07.865Z,50.90
2023-09-02T00:45:28.585Z,51.46
2023-09-02T00:47:51.448Z,51.38
2023-09-02T00:50:11.971Z,50.87
2023-09-02T00:52:35.712Z,50.82
2023-09-02T00:54:56.542Z,50.63
2023-09-02T00:57:17.167Z,50.85
2023-09-02T00:59:38.052Z,51.07
2023-09-02T01:02:02.046Z,51.54
2023-09-02T01:04:22.901Z,51.39
2023-09-02T01:06:43.469Z,51.28
2023-09-02T01:09:05.300Z,51.07
2023-09-02T01:11:26.142Z,50.98
2023-09-02T01:13:46.635Z,51.22
2023-09-02T01:16:07.530Z,50.64
2023-09-02T01:18:28.795Z,50.97
2023-09-02T01:21:20.361Z,50.71
2023-09-02T01:24:11.633Z,51.39
2023-09-02T01:26:50.923Z,50.97
2023-09-02T01:29:19.370Z,51.07
2023-09-02T01:31:40.720Z,51.10
2023-09-02T01:34:01.711Z,51.52
2023-09-02T01:36:23.650Z,51.20
2023-09-02T01:38:44.738Z,51.30
2023-09-02T01:41:06.450Z,51.59
2023-09-02T01:43:30.835Z,51.70
2023-09-02T01:45:52.666Z,51.60
2023-09-02T01:48:14.116Z,51.79
2023-09-02T01:50:36.072Z,51.96
2023-09-02T01:52:57.570Z,52.12
2023-09-02T01:55:18.437Z,51.81
2023-09-02T01:57:40.772Z,51.75
2023-09-02T02:00:01.387Z,51.49
2023-09-02T02:02:22.820Z,51.99
2023-09-02T02:04:47.292Z,51.89
2023-09-02T02:07:12.775Z,52.43
2023-09-02T02:09:47.134Z,52.59
2023-09-02T02:12:09.379Z,52.72
2023-09-02T02:14:34.025Z,53.01
2023-09-02T02:16:54.598Z,52.57
2023-09-02T02:19:15.568Z,52.53
2023-09-02T02:21:36.319Z,52.75
2023-09-02T02:23:58.220Z,52.31
2023-09-02T02:26:18.893Z,52.35
2023-09-02T02:28:39.763Z,52.41
2023-09-02T02:31:01.085Z,52.13
2023-09-02T02:33:21.570Z,52.05
2023-09-02T02:35:42.343Z,52.34
2023-09-02T02:38:02.932Z,52.13
2023-09-02T02:40:23.814Z,52.19
2023-09-02T02:42:44.345Z,51.60
2023-09-02T02:45:05.437Z,51.50
2023-09-02T02:47:26.000Z,51.80
2023-09-02T02:49:46.894Z,51.86
2023-09-02T02:52:07.528Z,51.15
2023-09-02T02:54:28.495Z,51.39
2023-09-02T02:56:49.357Z,51.52
2023-09-02T02:59:09.869Z,51.49
2023-09-02T03:01:31.485Z,51.43
2023-09-02T03:03:52.270Z,51.17
2023-09-02T03:06:18.884Z,51.46
2023-09-02T03:08:39.576Z,50.98
2023-09-02T03:11:02.438Z,51.60
2023-09-02T03:13:24.990Z,52.15
2023-09-02T03:15:54.771Z,52.51
2023-09-02T03:18:15.414Z,52.27
2023-09-02T03:20:36.189Z,52.25
2023-09-02T03:22:56.654Z,52.08
2023-09-02T03:25:17.430Z,51.31
2023-09-02T03:27:41.792Z,51.46
2023-09-02T03:30:02.768Z,51.52
2023-09-02T03:32:27.512Z,51.44
2023-09-02T03:34:48.359Z,51.62
2023-09-02T03:37:09.291Z,51.87
2023-09-02T03:39:32.166Z,51.74
2023-09-02T03:41:52.914Z,51.91
2023-09-02T03:44:13.341Z,52.54
2023-09-02T03:46:34.135Z,53.10
2023-09-02T03:48:54.717Z,52.79
2023-09-02T03:51:18.324Z,52.83
2023-09-02T03:53:40.119Z,52.95
2023-09-02T03:56:00.835Z,53.06
2023-09-02T03:58:21.366Z,52.23
2023-09-02T04:00:41.816Z,51.49
2023-09-02T04:03:02.302Z,51.82
2023-09-02T04:05:22.949Z,52.20
2023-09-02T04:07:43.305Z,52.16
2023-09-02T04:10:03.977Z,51.54
2023-09-02T04:12:24.680Z,51.63
2023-09-02T04:14:45.115Z,52.03
2023-09-02T04:17:05.572Z,51.95
2023-09-02T04:19:26.268Z,51.86
2023-09-02T04:21:50.470Z,51.91
2023-09-02T04:24:11.254Z,52.41
2023-09-02T04:26:31.626Z,52.88
2023-09-02T04:28:53.698Z,53.08
2023-09-02T04:31:14.675Z,52.91
2023-09-02T04:33:35.861Z,53.12
2023-09-02T04:35:56.756Z,53.57
2023-09-02T04:38:17.810Z,52.71
2023-09-02T04:40:39.735Z,53.40
2023-09-02T04:43:00.591Z,53.28
2023-09-02T04:45:21.395Z,53.99
2023-09-02T04:47:42.093Z,53.29
2023-09-02T04:50:03.811Z,54.19
2023-09-02T04:52:24.407Z,54.04
2023-09-02T04:54:46.347Z,54.30
2023-09-02T04:57:06.980Z,54.12
2023-09-02T04:59:27.597Z,54.46
2023-09-02T05:01:48.174Z,54.08
2023-09-02T05:04:08.550Z,54.11
2023-09-02T05:06:29.203Z,53.94
2023-09-02T05:08:55.152Z,54.32
2023-09-02T05:11:15.546Z,54.21
2023-09-02T05:13:36.016Z,53.86
2023-09-02T05:15:56.500Z,53.61
2023-09-02T05:18:16.884Z,53.53
2023-09-02T05:20:41.183Z,52.92
2023-09-02T05:23:01.889Z,53.30
2023-09-02T05:25:22.925Z,53.05
2023-09-02T05:27:43.790Z,52.73
2023-09-02T05:30:05.209Z,52.73
2023-09-02T05:32:25.815Z,52.62
2023-09-02T05:34:49.555Z,52.19
2023-09-02T05:37:10.149Z,52.16
2023-09-02T05:39:31.178Z,52.00
2023-09-02T05:41:51.921Z,51.86
2023-09-02T05:44:13.322Z,51.69
2023-09-02T05:46:33.805Z,51.69
2023-09-02T05:48:54.396Z,51.72
2023-09-02T05:51:14.867Z,51.35
2023-09-02T05:53:35.432Z,51.29
2023-09-02T05:55:56.634Z,51.24
2023-09-02T05:58:17.487Z,51.22
2023-09-02T06:00:38.034Z,50.85
2023-09-02T06:02:58.540Z,51.04
2023-09-02T06:05:19.004Z,50.73
2023-09-02T06:07:39.604Z,50.83
2023-09-02T06:10:00.263Z,50.29
2023-09-02T06:12:20.981Z,50.56
2023-09-02T06:14:41.530Z,50.47
2023-09-02T06:17:02.238Z,50.76
2023-09-02T06:19:23.093Z,50.44
2023-09-02T06:21:43.909Z,50.56
2023-09-02T06:24:06.491Z,50.08
2023-09-02T06:26:27.410Z,49.90
2023-09-02T06:28:48.124Z,49.73
2023-09-02T06:31:09.857Z,49.49
2023-09-02T06:33:30.579Z,49.62
2023-09-02T06:35:52.273Z,49.23
2023-09-02T06:38:12.943Z,49.34
2023-09-02T06:40:33.678Z,49.49
2023-09-02T06:42:54.138Z,49.50
2023-09-02T06:45:14.851Z,49.59
2023-09-02T06:47:35.402Z,49.55
2023-09-02T06:49:56.031Z,49.40
2023-09-02T06:52:16.860Z,48.82
2023-09-02T06:54:37.498Z,48.94
2023-09-02T06:56:57.852Z,49.25
2023-09-02T06:59:18.215Z,49.29
2023-09-02T07:01:38.781Z,49.50
2023-09-02T07:03:59.422Z,48.94
2023-09-02T07:06:20.817Z,48.71
2023-09-02T07:08:42.227Z,48.89
2023-09-02T07:11:03.256Z,48.39
2023-09-02T07:13:23.781Z,48.50
2023-09-02T07:15:44.140Z,48.38
2023-09-02T07:18:06.062Z,48.15
2023-09-02T07:20:26.979Z,48.17
2023-09-02T07:22:47.333Z,48.12
2023-09-02T07:25:08.349Z,47.51
2023-09-02T07:27:29.073Z,46.71
2023-09-02T07:29:49.477Z,47.17
2023-09-02T07:32:09.995Z,47.22
2023-09-02T07:34:30.970Z,47.45
2023-09-02T07:36:51.401Z,47.21
2023-09-02T07:39:11.905Z,46.11
2023-09-02T07:41:32.702Z,46.41
2023-09-02T07:43:53.013Z,45.97
2023-09-02T07:46:13.727Z,45.14
2023-09-02T07:48:34.443Z,44.06
2023-09-02T07:50:54.960Z,43.68
2023-09-02T07:53:15.903Z,42.54
2023-09-02T07:55:37.874Z,42.05
2023-09-02T07:58:00.974Z,42.39
2023-09-02T08:00:21.746Z,42.55
2023-09-02T08:02:42.410Z,42.65
2023-09-02T08:05:02.915Z,41.93
2023-09-02T08:07:23.577Z,41.57
2023-09-02T08:09:44.224Z,41.90
2023-09-02T08:12:05.096Z,41.63
2023-09-02T08:14:25.545Z,41.31
2023-09-02T08:16:46.101Z,40.79
2023-09-02T08:19:08.068Z,40.84
2023-09-02T08:21:28.799Z,40.13
2023-09-02T08:23:49.278Z,39.67
2023-09-02T08:26:14.293Z,39.64
2023-09-02T08:28:35.043Z,39.20
2023-09-02T08:30:55.849Z,39.27
2023-09-02T08:33:16.839Z,38.84
2023-09-02T08:35:38.087Z,38.53
2023-09-02T08:37:58.698Z,38.24
2023-09-02T08:40:19.265Z,38.55
2023-09-02T08:42:40.707Z,38.15
2023-09-02T08:45:06.402Z,37.49
2023-09-02T08:47:31.000Z,36.43
2023-09-02T08:49:52.826Z,37.00
2023-09-02T08:52:14.234Z,36.56
2023-09-02T08:54:36.105Z,36.71
2023-09-02T08:56:58.942Z,36.04
2023-09-02T08:59:19.926Z,35.88
2023-09-02T09:01:45.586Z,36.57
2023-09-02T09:04:08.240Z,36.29
2023-09-02T09:06:31.644Z,35.56
2023-09-02T09:08:55.330Z,35.35
2023-09-02T09:11:17.603Z,35.37
2023-09-02T09:13:45.968Z,34.50
2023-09-02T09:16:07.995Z,34.95
2023-09-02T09:18:29.326Z,35.51
2023-09-02T09:20:49.953Z,35.51
2023-09-02T09:23:10.512Z,34.83
2023-09-02T09:25:31.264Z,34.65
2023-09-02T09:27:52.046Z,34.18
2023-09-02T09:30:28.965Z,34.20
2023-09-02T09:33:02.077Z,33.51
2023-09-02T09:35:23.365Z,32.79
2023-09-02T09:37:54.400Z,33.27
2023-09-02T09:40:14.941Z,32.88
2023-09-02T09:42:36.256Z,33.45
2023-09-02T09:44:59.096Z,33.18
2023-09-02T09:47:20.285Z,33.33
2023-09-02T09:49:41.003Z,33.20
2023-09-02T09:52:01.490Z,31.25
2023-09-02T09:54:57.342Z,31.56
2023-09-02T09:57:36.659Z,32.45
2023-09-02T09:59:58.321Z,33.10
2023-09-02T10:02:21.727Z,33.21
2023-09-02T10:04:50.776Z,32.88
2023-09-02T10:07:14.924Z,33.12
2023-09-02T10:09:44.068Z,31.26
2023-09-02T10:12:12.821Z,30.86
2023-09-02T10:14:33.520Z,31.39
2023-09-02T10:16:54.053Z,31.80
2023-09-02T10:19:19.355Z,31.14
2023-09-02T10:21:41.465Z,30.87
2023-09-02T10:24:06.355Z,30.98
2023-09-02T10:26:49.837Z,32.20
2023-09-02T10:29:13.501Z,32.10
2023-09-02T10:31:40.014Z,31.92
2023-09-02T10:34:28.842Z,33.30
2023-09-02T10:36:57.988Z,34.40
2023-09-02T10:39:28.996Z,32.98
2023-09-02T10:41:50.620Z,33.55
2023-09-02T10:44:12.868Z,33.80
2023-09-02T10:46:34.333Z,35.10
2023-09-02T10:48:55.833Z,33.91
2023-09-02T10:51:17.204Z,32.82
2023-09-02T10:53:53.342Z,32.49
2023-09-02T10:56:34.499Z,33.04
2023-09-02T10:58:55.674Z,34.17
2023-09-02T11:01:16.715Z,32.77
2023-09-02T11:03:49.125Z,32.95
2023-09-02T11:06:13.035Z,32.41
2023-09-02T11:08:45.156Z,31.25
2023-09-02T11:11:05.881Z,31.06
2023-09-02T11:13:26.442Z,29.83
2023-09-02T11:16:14.773Z,29.62
2023-09-02T11:18:40.959Z,28.87
2023-09-02T11:21:01.969Z,29.01
2023-09-02T11:23:24.702Z,30.25
2023-09-02T11:25:46.376Z,30.18
2023-09-02T11:28:26.984Z,29.92
2023-09-02T11:31:11.316Z,29.30
2023-09-02T11:33:34.952Z,29.15
2023-09-02T11:36:04.248Z,29.51
2023-09-02T11:38:24.786Z,30.06
2023-09-02T11:40:45.267Z,29.13
2023-09-02T11:43:05.784Z,30.00
2023-09-02T11:45:29.505Z,29.91
2023-09-02T11:47:51.171Z,31.20
2023-09-02T11:50:14.490Z,32.61
2023-09-02T11:52:36.340Z,32.55
2023-09-02T11:54:57.097Z,31.73
2023-09-02T11:57:21.462Z,31.46
2023-09-02T11:59:44.821Z,30.66
2023-09-02T12:02:14.007Z,30.59
2023-09-02T12:04:42.135Z,31.21
2023-09-02T12:07:03.100Z,31.85
2023-09-02T12:09:23.974Z,31.50
2023-09-02T12:11:44.536Z,31.07
2023-09-02T12:14:05.227Z,30.49
2023-09-02T12:16:26.949Z,30.39
2023-09-02T12:18:47.671Z,30.32
2023-09-02T12:21:08.364Z,30.27
2023-09-02T12:23:29.247Z,29.90
2023-09-02T12:26:10.805Z,31.32
2023-09-02T12:28:31.507Z,31.23
2023-09-02T12:30:52.367Z,30.00
2023-09-02T12:33:17.063Z,30.58
2023-09-02T12:35:37.888Z,30.78
2023-09-02T12:38:03.422Z,30.33
2023-09-02T12:40:24.447Z,30.70
2023-09-02T12:42:55.216Z,32.27
2023-09-02T12:45:15.767Z,31.00
2023-09-02T12:47:38.705Z,32.78
2023-09-02T12:50:04.168Z,32.77
2023-09-02T12:52:26.466Z,31.07
2023-09-02T12:55:07.974Z,30.64
2023-09-02T12:57:31.565Z,30.46
2023-09-02T12:59:52.619Z,31.91
2023-09-02T13:02:13.278Z,32.66
2023-09-02T13:04:33.992Z,32.57
2023-09-02T13:06:54.579Z,31.42
2023-09-02T13:09:15.240Z,31.29
2023-09-02T13:11:36.158Z,30.58
2023-09-02T13:13:56.838Z,31.06
2023-09-02T13:16:18.100Z,30.42
2023-09-02T13:18:38.798Z,30.31
2023-09-02T13:21:02.836Z,29.98
2023-09-02T13:23:23.446Z,29.56
2023-09-02T13:25:43.860Z,30.66
2023-09-02T13:28:06.079Z,31.43
2023-09-02T13:30:26.808Z,31.53
2023-09-02T13:32:47.516Z,31.11
2023-09-02T13:35:15.617Z,31.00
2023-09-02T13:37:36.772Z,30.94
2023-09-02T13:40:24.850Z,29.88
2023-09-02T13:42:47.654Z,29.08
2023-09-02T13:45:17.454Z,28.73
2023-09-02T13:47:45.800Z,30.02
2023-09-02T13:50:08.416Z,30.27
2023-09-02T13:52:29.448Z,29.47
2023-09-02T13:54:53.899Z,28.82
2023-09-02T13:57:15.598Z,28.40
2023-09-02T13:59:36.268Z,29.06
2023-09-02T14:01:56.782Z,28.39
2023-09-02T14:04:17.946Z,28.39
2023-09-02T14:06:38.455Z,27.87
2023-09-02T14:09:01.722Z,28.39
2023-09-02T14:11:22.485Z,29.12
2023-09-02T14:13:43.322Z,28.25
2023-09-02T14:16:05.086Z,29.75
2023-09-02T14:18:25.508Z,30.28
2023-09-02T14:20:46.059Z,31.87
2023-09-02T14:23:06.628Z,30.64
2023-09-02T14:25:27.918Z,30.48
2023-09-02T14:27:48.770Z,30.76
2023-09-02T14:30:09.944Z,30.45
2023-09-02T14:32:30.631Z,30.16
2023-09-02T14:34:51.233Z,30.29
2023-09-02T14:37:12.102Z,30.93
2023-09-02T14:39:34.562Z,31.29
2023-09-02T14:41:55.471Z,31.44
2023-09-02T14:44:19.363Z,31.52
2023-09-02T14:46:40.095Z,31.64
2023-09-02T14:49:00.666Z,32.70
2023-09-02T14:51:21.177Z,32.56
2023-09-02T14:53:41.786Z,31.38
2023-09-02T14:56:06.530Z,30.40
2023-09-02T14:58:32.645Z,29.48
2023-09-02T15:00:55.820Z,31.20
2023-09-02T15:03:27.149Z,30.39
2023-09-02T15:05:48.273Z,31.15
2023-09-02T15:08:08.790Z,31.71
2023-09-02T15:10:33.030Z,31.66
2023-09-02T15:12:54.297Z,31.23
2023-09-02T15:15:16.757Z,31.61
2023-09-02T15:17:37.399Z,30.94
2023-09-02T15:20:01.873Z,31.27
2023-09-02T15:22:22.637Z,31.16
2023-09-02T15:24:43.466Z,31.46
2023-09-02T15:27:05.026Z,31.43
2023-09-02T15:29:25.827Z,30.60
2023-09-02T15:31:49.045Z,30.80
2023-09-02T15:34:10.000Z,29.76
2023-09-02T15:36:30.871Z,29.56
2023-09-02T15:38:51.613Z,29.34
2023-09-02T15:41:12.047Z,29.44
2023-09-02T15:43:38.560Z,28.75
2023-09-02T15:45:59.266Z,29.76
2023-09-02T15:48:21.015Z,30.57
2023-09-02T15:50:41.485Z,30.99
2023-09-02T15:53:02.074Z,31.27
2023-09-02T15:55:24.470Z,30.58
2023-09-02T15:57:44.950Z,29.90
2023-09-02T16:00:07.326Z,29.69
2023-09-02T16:02:27.818Z,29.83
2023-09-02T16:04:48.174Z,30.42
2023-09-02T16:07:08.902Z,31.20
2023-09-02T16:09:31.025Z,30.89
2023-09-02T16:11:53.295Z,30.90
2023-09-02T16:14:13.729Z,31.58
2023-09-02T16:16:36.874Z,30.25
2023-09-02T16:18:58.730Z,29.99
2023-09-02T16:21:19.329Z,30.54
2023-09-02T16:23:40.138Z,31.10
2023-09-02T16:26:00.757Z,31.26
2023-09-02T16:28:21.834Z,31.10
2023-09-02T16:30:42.671Z,30.28
2023-09-02T16:33:03.554Z,31.29
2023-09-02T16:35:25.918Z,30.92
2023-09-02T16:37:47.901Z,31.19
2023-09-02T16:40:10.432Z,30.48
2023-09-02T16:42:33.772Z,29.99
2023-09-02T16:45:02.053Z,29.62
2023-09-02T16:47:24.913Z,29.72
2023-09-02T16:49:45.946Z,29.85
2023-09-02T16:52:09.122Z,30.51
2023-09-02T16:54:31.623Z,31.27
2023-09-02T16:56:52.431Z,30.73
2023-09-02T16:59:13.264Z,30.77
2023-09-02T17:01:35.287Z,31.28
2023-09-02T17:03:56.038Z,31.42
2023-09-02T17:06:26.986Z,31.34
2023-09-02T17:08:47.769Z,31.29
2023-09-02T17:11:08.329Z,31.83
2023-09-02T17:13:28.955Z,31.89
2023-09-02T17:15:49.558Z,32.03
2023-09-02T17:18:10.831Z,31.73
2023-09-02T17:20:36.011Z,32.08
2023-09-02T17:22:59.118Z,32.14
2023-09-02T17:25:20.688Z,32.06
2023-09-02T17:28:03.481Z,32.05
2023-09-02T17:30:26.498Z,32.46
2023-09-02T17:32:50.545Z,32.45
2023-09-02T17:35:11.348Z,32.43
2023-09-02T17:37:35.401Z,32.39
2023-09-02T17:39:56.098Z,33.00
2023-09-02T17:42:18.037Z,32.77
2023-09-02T17:44:38.423Z,33.32
2023-09-02T17:46:58.835Z,33.33
2023-09-02T17:49:19.280Z,34.57
2023-09-02T17:51:39.787Z,35.41
2023-09-02T17:54:00.705Z,35.56
2023-09-02T17:56:21.227Z,36.18
2023-09-02T17:58:42.901Z,36.94
2023-09-02T18:01:03.616Z,37.08
2023-09-02T18:03:24.358Z,37.90
2023-09-02T18:05:45.295Z,37.85
2023-09-02T18:08:05.900Z,38.38
2023-09-02T18:10:26.630Z,37.87
2023-09-02T18:12:47.048Z,37.93
2023-09-02T18:15:10.111Z,38.19
2023-09-02T18:17:30.573Z,38.85
2023-09-02T18:19:51.263Z,39.18
2023-09-02T18:22:11.989Z,39.16
2023-09-02T18:24:36.749Z,39.81
2023-09-02T18:26:57.481Z,40.28
2023-09-02T18:29:18.016Z,39.99
2023-09-02T18:31:38.416Z,39.87
2023-09-02T18:33:59.064Z,39.30
2023-09-02T18:36:23.378Z,39.57
2023-09-02T18:38:43.894Z,40.03
2023-09-02T18:41:04.404Z,40.62
2023-09-02T18:43:24.803Z,40.01
2023-09-02T18:45:45.232Z,40.40
2023-09-02T18:48:07.025Z,40.82
2023-09-02T18:50:29.792Z,40.90
2023-09-02T18:52:50.326Z,41.67
2023-09-02T18:55:10.857Z,41.19
2023-09-02T18:57:31.189Z,40.85
2023-09-02T18:59:52.024Z,41.49
2023-09-02T19:02:12.424Z,41.82
2023-09-02T19:04:32.895Z,42.28
2023-09-02T19:06:53.305Z,41.73
2023-09-02T19:09:15.014Z,41.72
2023-09-02T19:11:35.635Z,41.88
2023-09-02T19:14:00.026Z,42.33
2023-09-02T19:16:20.658Z,42.69
2023-09-02T19:18:41.193Z,42.61
2023-09-02T19:21:01.770Z,42.99
2023-09-02T19:23:22.402Z,42.83
2023-09-02T19:25:44.868Z,43.31
2023-09-02T19:28:06.169Z,43.04
2023-09-02T19:30:26.657Z,43.46
2023-09-02T19:32:47.173Z,43.41
2023-09-02T19:35:12.080Z,44.04
2023-09-02T19:37:43.626Z,44.03
2023-09-02T19:40:04.840Z,44.32
2023-09-02T19:42:25.692Z,44.24
2023-09-02T19:44:46.234Z,44.10
2023-09-02T19:47:06.913Z,43.88
2023-09-02T19:49:27.465Z,44.47
2023-09-02T19:51:47.946Z,44.34
2023-09-02T19:54:10.109Z,44.45
2023-09-02T19:56:30.656Z,44.31
2023-09-02T19:59:02.536Z,44.65
2023-09-02T20:01:27.511Z,45.20
2023-09-02T20:03:48.648Z,44.70
2023-09-02T20:06:15.742Z,45.32
2023-09-02T20:08:36.397Z,45.21
2023-09-02T20:10:59.878Z,45.72
2023-09-02T20:13:20.508Z,46.08
2023-09-02T20:15:41.365Z,45.79
2023-09-02T20:18:02.092Z,46.22
2023-09-02T20:20:22.836Z,46.00
2023-09-02T20:22:46.594Z,45.62
2023-09-02T20:25:07.571Z,46.34
2023-09-02T20:27:28.179Z,46.10
2023-09-02T20:29:50.505Z,46.73
2023-09-02T20:32:11.114Z,46.21
2023-09-02T20:34:31.656Z,46.67
2023-09-02T20:36:52.710Z,47.38
2023-09-02T20:39:13.765Z,47.23
2023-09-02T20:41:34.695Z,47.22
2023-09-02T20:43:55.169Z,47.65
2023-09-02T20:46:16.118Z,47.26
2023-09-02T20:48:36.910Z,47.22
2023-09-02T20:50:57.403Z,47.52
2023-09-02T20:53:17.899Z,47.25
2023-09-02T20:55:39.492Z,47.97
2023-09-02T20:57:59.949Z,48.12
2023-09-02T21:00:20.620Z,48.67
2023-09-02T21:02:41.146Z,48.73
2023-09-02T21:05:02.045Z,48.55
2023-09-02T21:07:22.690Z,48.12
2023-09-02T21:09:43.687Z,47.76
2023-09-02T21:12:04.854Z,48.15
2023-09-02T21:14:25.706Z,47.89
2023-09-02T21:16:46.685Z,48.04
2023-09-02T21:19:07.209Z,48.60
2023-09-02T21:21:28.035Z,48.48
2023-09-02T21:23:49.240Z,48.41
2023-09-02T21:26:10.969Z,48.54
2023-09-02T21:28:31.567Z,48.30
2023-09-02T21:30:52.099Z,48.16
2023-09-02T21:33:12.780Z,48.69
2023-09-02T21:35:39.390Z,49.00
2023-09-02T21:38:00.474Z,48.80
2023-09-02T21:40:21.071Z,49.05
2023-09-02T21:42:41.821Z,49.17
2023-09-02T21:45:02.757Z,48.70
2023-09-02T21:47:23.678Z,48.91
2023-09-02T21:49:47.050Z,49.21
2023-09-02T21:52:07.650Z,49.06
2023-09-02T21:54:28.227Z,49.76
2023-09-02T21:56:48.804Z,49.72
2023-09-02T21:59:09.355Z,49.79
2023-09-02T22:01:30.013Z,49.04
2023-09-02T22:03:50.629Z,49.26
2023-09-02T22:06:13.689Z,49.53
2023-09-02T22:08:35.433Z,49.61
2023-09-02T22:10:57.235Z,49.36
2023-09-02T22:13:18.040Z,49.26
2023-09-02T22:15:38.581Z,49.25
2023-09-02T22:17:59.002Z,49.33
2023-09-02T22:20:19.627Z,49.15
2023-09-02T22:22:40.338Z,49.26
2023-09-02T22:25:00.797Z,49.70
2023-09-02T22:27:21.292Z,49.55
2023-09-02T22:29:42.005Z,49.27
2023-09-02T22:32:02.800Z,49.60
2023-09-02T22:34:23.742Z,49.81
2023-09-02T22:36:44.285Z,50.02
2023-09-02T22:39:04.854Z,49.73
2023-09-02T22:41:25.654Z,50.21
2023-09-02T22:43:46.057Z,49.19
2023-09-02T22:46:10.496Z,49.96
2023-09-02T22:48:33.333Z,49.73
2023-09-02T22:50:54.143Z,49.91
2023-09-02T22:53:14.828Z,50.18
2023-09-02T22:55:37.284Z,50.06
2023-09-02T22:57:58.127Z,49.75
2023-09-02T23:00:18.832Z,49.98
2023-09-02T23:02:39.699Z,49.98
2023-09-02T23:05:00.389Z,49.79
2023-09-02T23:07:21.187Z,49.67
2023-09-02T23:09:41.748Z,49.88
2023-09-02T23:12:02.532Z,50.00
2023-09-02T23:14:23.150Z,50.30
2023-09-02T23:16:43.634Z,50.08
2023-09-02T23:19:04.497Z,49.73
2023-09-02T23:21:27.065Z,49.58
2023-09-02T23:23:50.532Z,49.36
2023-09-02T23:26:12.058Z,49.41
2023-09-02T23:28:32.586Z,49.45
2023-09-02T23:30:57.496Z,50.04
2023-09-02T23:33:18.405Z,50.08
2023-09-02T23:35:38.920Z,50.35
2023-09-02T23:37:59.675Z,50.23
2023-09-02T23:40:20.352Z,50.05
2023-09-02T23:42:40.835Z,50.11
2023-09-02T23:45:01.314Z,50.14
2023-09-02T23:47:21.868Z,50.07
2023-09-02T23:49:42.693Z,50.17
2023-09-02T23:52:03.886Z,50.32
2023-09-02T23:54:24.417Z,50.30
2023-09-02T23:56:44.904Z,50.52
2023-09-02T23:59:05.422Z,50.50
